Preview of NWS' New Version of Forecast
This preview is not operational and should not be used for support decisions.

Terminal Aerodrome Forecast (TAF)

Issued by National Weather Service (NWS)

                            
950 
FTUS42 KKEY 211137
TAFMTH
TAF
KMTH 211137Z 2112/2212 11012G21KT P6SM FEW025
     FM220200 10010G17KT P6SM SCT020 SCT035=